sensor_id;sensor_type;location;lat;lon;timestamp;temperature;humidity
16674;DHT22;8450;52.654;10.326;2024-01-30T00:01:51;1.90;99.90
16674;DHT22;8450;52.654;10.326;2024-01-30T00:04:16;1.90;99.90
16674;DHT22;8450;52.654;10.326;2024-01-30T00:06:43;1.90;99.90
16674;DHT22;8450;52.654;10.326;2024-01-30T00:09:08;1.90;99.90
16674;DHT22;8450;52.654;10.326;2024-01-30T00:11:35;1.90;99.90
16674;DHT22;8450;52.654;10.326;2024-01-30T00:14:01;1.90;99.90
16674;DHT22;8450;52.654;10.326;2024-01-30T00:16:27;1.90;99.90
16674;DHT22;8450;52.654;10.326;2024-01-30T00:18:53;1.90;99.90
16674;DHT22;8450;52.654;10.326;2024-01-30T00:21:19;1.90;99.90
16674;DHT22;8450;52.654;10.326;2024-01-30T00:23:45;1.80;99.90
16674;DHT22;8450;52.654;10.326;2024-01-30T00:26:11;1.80;99.90
16674;DHT22;8450;52.654;10.326;2024-01-30T00:28:43;1.80;99.90
16674;DHT22;8450;52.654;10.326;2024-01-30T00:31:08;1.80;99.90
16674;DHT22;8450;52.654;10.326;2024-01-30T00:33:41;1.70;99.90
16674;DHT22;8450;52.654;10.326;2024-01-30T00:36:08;1.70;99.90
16674;DHT22;8450;52.654;10.326;2024-01-30T00:38:34;1.70;99.90
16674;DHT22;8450;52.654;10.326;2024-01-30T00:40:59;1.60;99.90
16674;DHT22;8450;52.654;10.326;2024-01-30T00:43:25;1.60;99.90
16674;DHT22;8450;52.654;10.326;2024-01-30T00:45:51;1.60;99.90
16674;DHT22;8450;52.654;10.326;2024-01-30T00:48:20;1.70;99.90
16674;DHT22;8450;52.654;10.326;2024-01-30T00:50:46;1.60;99.90
16674;DHT22;8450;52.654;10.326;2024-01-30T00:53:12;1.50;99.90
16674;DHT22;8450;52.654;10.326;2024-01-30T00:55:38;1.60;99.90
16674;DHT22;8450;52.654;10.326;2024-01-30T00:58:04;1.60;99.90
16674;DHT22;8450;52.654;10.326;2024-01-30T01:00:29;1.60;99.90
16674;DHT22;8450;52.654;10.326;2024-01-30T01:02:56;1.60;99.90
16674;DHT22;8450;52.654;10.326;2024-01-30T01:05:22;1.60;99.90
16674;DHT22;8450;52.654;10.326;2024-01-30T01:07:47;1.60;99.90
16674;DHT22;8450;52.654;10.326;2024-01-30T01:10:14;1.50;99.90
16674;DHT22;8450;52.654;10.326;2024-01-30T01:12:40;1.50;99.90
16674;DHT22;8450;52.654;10.326;2024-01-30T01:15:06;1.40;99.90
16674;DHT22;8450;52.654;10.326;2024-01-30T01:17:34;1.40;99.90
16674;DHT22;8450;52.654;10.326;2024-01-30T01:20:00;1.30;99.90
16674;DHT22;8450;52.654;10.326;2024-01-30T01:22:25;1.30;99.90
16674;DHT22;8450;52.654;10.326;2024-01-30T01:24:51;1.40;99.90
16674;DHT22;8450;52.654;10.326;2024-01-30T01:27:16;1.40;99.90
16674;DHT22;8450;52.654;10.326;2024-01-30T01:29:42;1.40;99.90
16674;DHT22;8450;52.654;10.326;2024-01-30T01:32:08;1.40;99.90
16674;DHT22;8450;52.654;10.326;2024-01-30T01:34:34;1.40;99.90
16674;DHT22;8450;52.654;10.326;2024-01-30T01:36:59;1.40;99.90
16674;DHT22;8450;52.654;10.326;2024-01-30T01:39:25;1.30;99.90
16674;DHT22;8450;52.654;10.326;2024-01-30T01:41:51;1.40;99.90
16674;DHT22;8450;52.654;10.326;2024-01-30T01:44:18;1.30;99.90
16674;DHT22;8450;52.654;10.326;2024-01-30T01:46:44;1.30;99.90
16674;DHT22;8450;52.654;10.326;2024-01-30T01:49:09;1.40;99.90
16674;DHT22;8450;52.654;10.326;2024-01-30T01:51:36;1.30;99.90
16674;DHT22;8450;52.654;10.326;2024-01-30T01:54:03;1.30;99.90
16674;DHT22;8450;52.654;10.326;2024-01-30T01:56:31;1.30;99.90
16674;DHT22;8450;52.654;10.326;2024-01-30T01:59:00;1.30;99.90
16674;DHT22;8450;52.654;10.326;2024-01-30T02:01:27;1.30;99.90
16674;DHT22;8450;52.654;10.326;2024-01-30T02:03:53;1.30;99.90
16674;DHT22;8450;52.654;10.326;2024-01-30T02:06:20;1.20;99.90
16674;DHT22;8450;52.654;10.326;2024-01-30T02:08:45;1.20;99.90
16674;DHT22;8450;52.654;10.326;2024-01-30T02:11:11;1.30;99.90
16674;DHT22;8450;52.654;10.326;2024-01-30T02:13:37;1.20;99.90
16674;DHT22;8450;52.654;10.326;2024-01-30T02:16:03;1.20;99.90
16674;DHT22;8450;52.654;10.326;2024-01-30T02:18:28;1.20;99.90
16674;DHT22;8450;52.654;10.326;2024-01-30T02:20:56;1.20;99.90
16674;DHT22;8450;52.654;10.326;2024-01-30T02:23:24;1.20;99.90
16674;DHT22;8450;52.654;10.326;2024-01-30T02:25:52;1.20;99.90
16674;DHT22;8450;52.654;10.326;2024-01-30T02:28:19;1.10;99.90
16674;DHT22;8450;52.654;10.326;2024-01-30T02:30:45;1.10;99.90
16674;DHT22;8450;52.654;10.326;2024-01-30T02:33:11;1.10;99.90
16674;DHT22;8450;52.654;10.326;2024-01-30T02:35:37;1.10;99.90
16674;DHT22;8450;52.654;10.326;2024-01-30T02:38:03;1.10;99.90
16674;DHT22;8450;52.654;10.326;2024-01-30T02:40:29;1.20;99.90
16674;DHT22;8450;52.654;10.326;2024-01-30T02:42:55;1.10;99.90
16674;DHT22;8450;52.654;10.326;2024-01-30T02:45:21;1.10;99.90
16674;DHT22;8450;52.654;10.326;2024-01-30T02:47:46;1.10;99.90
16674;DHT22;8450;52.654;10.326;2024-01-30T02:50:12;1.20;99.90
16674;DHT22;8450;52.654;10.326;2024-01-30T02:52:37;1.10;99.90
16674;DHT22;8450;52.654;10.326;2024-01-30T02:55:03;1.10;99.90
16674;DHT22;8450;52.654;10.326;2024-01-30T02:57:29;1.10;99.90
16674;DHT22;8450;52.654;10.326;2024-01-30T02:59:54;1.10;99.90
16674;DHT22;8450;52.654;10.326;2024-01-30T03:02:20;1.10;99.90
16674;DHT22;8450;52.654;10.326;2024-01-30T03:04:47;1.00;99.90
16674;DHT22;8450;52.654;10.326;2024-01-30T03:07:12;1.10;99.90
16674;DHT22;8450;52.654;10.326;2024-01-30T03:09:38;1.10;99.90
16674;DHT22;8450;52.654;10.326;2024-01-30T03:12:04;1.00;99.90
16674;DHT22;8450;52.654;10.326;2024-01-30T03:14:31;1.10;99.90
16674;DHT22;8450;52.654;10.326;2024-01-30T03:16:57;1.10;99.90
16674;DHT22;8450;52.654;10.326;2024-01-30T03:19:23;1.10;99.90
16674;DHT22;8450;52.654;10.326;2024-01-30T03:21:49;1.10;99.90
16674;DHT22;8450;52.654;10.326;2024-01-30T03:24:14;1.10;99.90
16674;DHT22;8450;52.654;10.326;2024-01-30T03:26:40;1.10;99.90
16674;DHT22;8450;52.654;10.326;2024-01-30T03:29:05;1.10;99.90
16674;DHT22;8450;52.654;10.326;2024-01-30T03:31:31;1.10;99.90
16674;DHT22;8450;52.654;10.326;2024-01-30T03:33:57;1.10;99.90
16674;DHT22;8450;52.654;10.326;2024-01-30T03:36:23;1.10;99.90
16674;DHT22;8450;52.654;10.326;2024-01-30T03:38:48;1.10;99.90
16674;DHT22;8450;52.654;10.326;2024-01-30T03:41:14;1.10;99.90
16674;DHT22;8450;52.654;10.326;2024-01-30T03:43:40;1.10;99.90
16674;DHT22;8450;52.654;10.326;2024-01-30T03:46:06;1.10;99.90
16674;DHT22;8450;52.654;10.326;2024-01-30T03:48:31;1.10;99.90
16674;DHT22;8450;52.654;10.326;2024-01-30T03:50:57;1.10;99.90
16674;DHT22;8450;52.654;10.326;2024-01-30T03:53:22;1.10;99.90
16674;DHT22;8450;52.654;10.326;2024-01-30T03:55:48;1.10;99.90
16674;DHT22;8450;52.654;10.326;2024-01-30T03:58:14;1.10;99.90
16674;DHT22;8450;52.654;10.326;2024-01-30T04:00:39;1.10;99.90
16674;DHT22;8450;52.654;10.326;2024-01-30T04:03:06;1.10;99.90
16674;DHT22;8450;52.654;10.326;2024-01-30T04:05:32;1.10;99.90
16674;DHT22;8450;52.654;10.326;2024-01-30T04:07:58;1.10;99.90
16674;DHT22;8450;52.654;10.326;2024-01-30T04:10:23;1.10;99.90
16674;DHT22;8450;52.654;10.326;2024-01-30T04:12:50;1.00;99.90
16674;DHT22;8450;52.654;10.326;2024-01-30T04:15:17;1.00;99.90
16674;DHT22;8450;52.654;10.326;2024-01-30T04:17:42;1.00;99.90
16674;DHT22;8450;52.654;10.326;2024-01-30T04:20:13;1.00;99.90
16674;DHT22;8450;52.654;10.326;2024-01-30T04:22:38;1.00;99.90
16674;DHT22;8450;52.654;10.326;2024-01-30T04:25:04;1.00;99.90
16674;DHT22;8450;52.654;10.326;2024-01-30T04:27:29;1.00;99.90
16674;DHT22;8450;52.654;10.326;2024-01-30T04:29:55;1.00;99.90
16674;DHT22;8450;52.654;10.326;2024-01-30T04:32:20;1.00;99.90
16674;DHT22;8450;52.654;10.326;2024-01-30T04:34:46;1.00;99.90
16674;DHT22;8450;52.654;10.326;2024-01-30T04:37:11;1.00;99.90
16674;DHT22;8450;52.654;10.326;2024-01-30T04:39:37;1.00;99.90
16674;DHT22;8450;52.654;10.326;2024-01-30T04:42:03;1.00;99.90
16674;DHT22;8450;52.654;10.326;2024-01-30T04:44:28;1.00;99.90
16674;DHT22;8450;52.654;10.326;2024-01-30T04:46:54;1.00;99.90
16674;DHT22;8450;52.654;10.326;2024-01-30T04:49:19;1.00;99.90
16674;DHT22;8450;52.654;10.326;2024-01-30T04:51:45;1.00;99.90
16674;DHT22;8450;52.654;10.326;2024-01-30T04:54:10;1.00;99.90
16674;DHT22;8450;52.654;10.326;2024-01-30T04:56:36;1.00;99.90
16674;DHT22;8450;52.654;10.326;2024-01-30T04:59:02;1.00;99.90
16674;DHT22;8450;52.654;10.326;2024-01-30T05:01:28;0.90;99.90
16674;DHT22;8450;52.654;10.326;2024-01-30T05:03:53;1.00;99.90
16674;DHT22;8450;52.654;10.326;2024-01-30T05:06:28;0.90;99.90
16674;DHT22;8450;52.654;10.326;2024-01-30T05:08:54;1.00;99.90
16674;DHT22;8450;52.654;10.326;2024-01-30T05:11:21;0.90;99.90
16674;DHT22;8450;52.654;10.326;2024-01-30T05:13:46;0.90;99.90
16674;DHT22;8450;52.654;10.326;2024-01-30T05:16:13;0.80;99.90
16674;DHT22;8450;52.654;10.326;2024-01-30T05:18:38;0.90;99.90
16674;DHT22;8450;52.654;10.326;2024-01-30T05:21:05;0.90;99.90
16674;DHT22;8450;52.654;10.326;2024-01-30T05:23:30;0.90;99.90
16674;DHT22;8450;52.654;10.326;2024-01-30T05:25:56;0.90;99.90
16674;DHT22;8450;52.654;10.326;2024-01-30T05:28:21;0.80;99.90
16674;DHT22;8450;52.654;10.326;2024-01-30T05:30:47;0.80;99.90
16674;DHT22;8450;52.654;10.326;2024-01-30T05:33:13;0.80;99.90
16674;DHT22;8450;52.654;10.326;2024-01-30T05:35:38;0.80;99.90
16674;DHT22;8450;52.654;10.326;2024-01-30T05:38:04;0.80;99.90
16674;DHT22;8450;52.654;10.326;2024-01-30T05:40:30;0.70;99.90
16674;DHT22;8450;52.654;10.326;2024-01-30T05:42:56;0.70;99.90
16674;DHT22;8450;52.654;10.326;2024-01-30T05:45:23;0.80;99.90
16674;DHT22;8450;52.654;10.326;2024-01-30T05:47:49;0.70;99.90
16674;DHT22;8450;52.654;10.326;2024-01-30T05:50:14;0.70;99.90
16674;DHT22;8450;52.654;10.326;2024-01-30T05:52:40;0.70;99.90
16674;DHT22;8450;52.654;10.326;2024-01-30T05:55:06;0.70;99.90
16674;DHT22;8450;52.654;10.326;2024-01-30T05:57:31;0.70;99.90
16674;DHT22;8450;52.654;10.326;2024-01-30T05:59:57;0.70;99.90
16674;DHT22;8450;52.654;10.326;2024-01-30T06:02:23;0.70;99.90
16674;DHT22;8450;52.654;10.326;2024-01-30T06:04:48;0.70;99.90
16674;DHT22;8450;52.654;10.326;2024-01-30T06:07:14;0.70;99.90
16674;DHT22;8450;52.654;10.326;2024-01-30T06:09:39;0.60;99.90
16674;DHT22;8450;52.654;10.326;2024-01-30T06:12:06;0.70;99.90
16674;DHT22;8450;52.654;10.326;2024-01-30T06:14:32;0.60;99.90
16674;DHT22;8450;52.654;10.326;2024-01-30T06:16:58;0.60;99.90
16674;DHT22;8450;52.654;10.326;2024-01-30T06:19:24;0.60;99.90
16674;DHT22;8450;52.654;10.326;2024-01-30T06:21:49;0.60;99.90
16674;DHT22;8450;52.654;10.326;2024-01-30T06:24:15;0.60;99.90
16674;DHT22;8450;52.654;10.326;2024-01-30T06:26:40;0.60;99.90
16674;DHT22;8450;52.654;10.326;2024-01-30T06:29:06;0.50;99.90
16674;DHT22;8450;52.654;10.326;2024-01-30T06:31:33;0.60;99.90
16674;DHT22;8450;52.654;10.326;2024-01-30T06:33:58;0.60;99.90
16674;DHT22;8450;52.654;10.326;2024-01-30T06:36:24;0.60;99.90
16674;DHT22;8450;52.654;10.326;2024-01-30T06:38:49;0.60;99.90
16674;DHT22;8450;52.654;10.326;2024-01-30T06:41:15;0.60;99.90
16674;DHT22;8450;52.654;10.326;2024-01-30T06:43:41;0.60;99.90
16674;DHT22;8450;52.654;10.326;2024-01-30T06:46:06;0.60;99.90
16674;DHT22;8450;52.654;10.326;2024-01-30T06:48:32;0.50;99.90
16674;DHT22;8450;52.654;10.326;2024-01-30T06:50:57;0.50;99.90
16674;DHT22;8450;52.654;10.326;2024-01-30T06:53:23;0.50;99.90
16674;DHT22;8450;52.654;10.326;2024-01-30T06:55:49;0.40;99.90
16674;DHT22;8450;52.654;10.326;2024-01-30T06:58:14;0.40;99.90
16674;DHT22;8450;52.654;10.326;2024-01-30T07:00:40;0.40;99.90
16674;DHT22;8450;52.654;10.326;2024-01-30T07:03:06;0.40;99.90
16674;DHT22;8450;52.654;10.326;2024-01-30T07:05:31;0.40;99.90
16674;DHT22;8450;52.654;10.326;2024-01-30T07:07:57;0.40;99.90
16674;DHT22;8450;52.654;10.326;2024-01-30T07:10:23;0.40;99.90
16674;DHT22;8450;52.654;10.326;2024-01-30T07:12:48;0.40;99.90
16674;DHT22;8450;52.654;10.326;2024-01-30T07:15:14;0.40;99.90
16674;DHT22;8450;52.654;10.326;2024-01-30T07:17:42;0.40;99.90
16674;DHT22;8450;52.654;10.326;2024-01-30T07:20:08;0.40;99.90
16674;DHT22;8450;52.654;10.326;2024-01-30T07:22:34;0.40;99.90
16674;DHT22;8450;52.654;10.326;2024-01-30T07:25:00;0.40;99.90
16674;DHT22;8450;52.654;10.326;2024-01-30T07:27:26;0.40;99.90
16674;DHT22;8450;52.654;10.326;2024-01-30T07:29:51;0.40;99.90
16674;DHT22;8450;52.654;10.326;2024-01-30T07:32:17;0.40;99.90
16674;DHT22;8450;52.654;10.326;2024-01-30T07:34:43;0.40;99.90
16674;DHT22;8450;52.654;10.326;2024-01-30T07:37:09;0.40;99.90
16674;DHT22;8450;52.654;10.326;2024-01-30T07:39:36;0.40;99.90
16674;DHT22;8450;52.654;10.326;2024-01-30T07:42:02;0.40;99.90
16674;DHT22;8450;52.654;10.326;2024-01-30T07:44:28;0.40;99.90
16674;DHT22;8450;52.654;10.326;2024-01-30T07:46:53;0.40;99.90
16674;DHT22;8450;52.654;10.326;2024-01-30T07:49:20;0.40;99.90
16674;DHT22;8450;52.654;10.326;2024-01-30T07:51:45;0.40;99.90
16674;DHT22;8450;52.654;10.326;2024-01-30T07:54:11;0.40;99.90
16674;DHT22;8450;52.654;10.326;2024-01-30T07:56:37;0.40;99.90
16674;DHT22;8450;52.654;10.326;2024-01-30T07:59:03;0.50;99.90
16674;DHT22;8450;52.654;10.326;2024-01-30T08:01:28;0.50;99.90
16674;DHT22;8450;52.654;10.326;2024-01-30T08:03:54;0.50;99.90
16674;DHT22;8450;52.654;10.326;2024-01-30T08:06:19;0.50;99.90
16674;DHT22;8450;52.654;10.326;2024-01-30T08:08:45;0.60;99.90
16674;DHT22;8450;52.654;10.326;2024-01-30T08:11:10;0.60;99.90
16674;DHT22;8450;52.654;10.326;2024-01-30T08:13:36;0.60;99.90
16674;DHT22;8450;52.654;10.326;2024-01-30T08:16:01;0.60;99.90
16674;DHT22;8450;52.654;10.326;2024-01-30T08:18:27;0.70;99.90
16674;DHT22;8450;52.654;10.326;2024-01-30T08:20:52;0.70;99.90
16674;DHT22;8450;52.654;10.326;2024-01-30T08:23:18;0.70;99.90
16674;DHT22;8450;52.654;10.326;2024-01-30T08:25:44;0.80;99.90
16674;DHT22;8450;52.654;10.326;2024-01-30T08:28:09;0.80;99.90
16674;DHT22;8450;52.654;10.326;2024-01-30T08:30:35;0.80;99.90
16674;DHT22;8450;52.654;10.326;2024-01-30T08:33:01;0.90;99.90
16674;DHT22;8450;52.654;10.326;2024-01-30T08:35:26;0.90;99.90
16674;DHT22;8450;52.654;10.326;2024-01-30T08:37:52;1.00;99.90
16674;DHT22;8450;52.654;10.326;2024-01-30T08:40:17;1.00;99.90
16674;DHT22;8450;52.654;10.326;2024-01-30T08:42:43;1.00;99.90
16674;DHT22;8450;52.654;10.326;2024-01-30T08:45:09;1.10;99.90
16674;DHT22;8450;52.654;10.326;2024-01-30T08:47:34;1.20;99.90
16674;DHT22;8450;52.654;10.326;2024-01-30T08:50:00;1.20;99.90
16674;DHT22;8450;52.654;10.326;2024-01-30T08:52:26;1.30;99.90
16674;DHT22;8450;52.654;10.326;2024-01-30T08:54:51;1.30;99.90
16674;DHT22;8450;52.654;10.326;2024-01-30T08:57:17;1.40;99.90
16674;DHT22;8450;52.654;10.326;2024-01-30T08:59:43;1.40;99.90
16674;DHT22;8450;52.654;10.326;2024-01-30T09:02:11;1.50;99.90
16674;DHT22;8450;52.654;10.326;2024-01-30T09:04:38;1.50;99.90
16674;DHT22;8450;52.654;10.326;2024-01-30T09:07:04;1.60;99.90
16674;DHT22;8450;52.654;10.326;2024-01-30T09:09:33;1.60;99.90
16674;DHT22;8450;52.654;10.326;2024-01-30T09:11:59;1.70;99.90
16674;DHT22;8450;52.654;10.326;2024-01-30T09:14:29;1.80;99.90
16674;DHT22;8450;52.654;10.326;2024-01-30T09:16:56;1.80;99.90
16674;DHT22;8450;52.654;10.326;2024-01-30T09:19:21;1.90;99.90
16674;DHT22;8450;52.654;10.326;2024-01-30T09:21:47;1.90;99.90
16674;DHT22;8450;52.654;10.326;2024-01-30T09:24:12;2.00;99.90
16674;DHT22;8450;52.654;10.326;2024-01-30T09:26:38;2.00;99.90
16674;DHT22;8450;52.654;10.326;2024-01-30T09:29:03;2.10;99.90
16674;DHT22;8450;52.654;10.326;2024-01-30T09:31:29;2.20;99.90
16674;DHT22;8450;52.654;10.326;2024-01-30T09:33:54;2.30;99.90
16674;DHT22;8450;52.654;10.326;2024-01-30T09:36:20;2.40;99.90
16674;DHT22;8450;52.654;10.326;2024-01-30T09:38:46;2.50;99.90
16674;DHT22;8450;52.654;10.326;2024-01-30T09:41:12;3.00;99.90
16674;DHT22;8450;52.654;10.326;2024-01-30T09:43:38;3.60;99.90
16674;DHT22;8450;52.654;10.326;2024-01-30T09:46:11;4.10;99.90
16674;DHT22;8450;52.654;10.326;2024-01-30T09:48:37;4.50;99.90
16674;DHT22;8450;52.654;10.326;2024-01-30T09:51:03;4.90;99.90
16674;DHT22;8450;52.654;10.326;2024-01-30T09:53:29;5.20;99.90
16674;DHT22;8450;52.654;10.326;2024-01-30T09:55:54;5.40;99.90
16674;DHT22;8450;52.654;10.326;2024-01-30T09:58:20;5.60;99.90
16674;DHT22;8450;52.654;10.326;2024-01-30T10:00:45;5.70;99.90
16674;DHT22;8450;52.654;10.326;2024-01-30T10:03:11;5.90;99.90
16674;DHT22;8450;52.654;10.326;2024-01-30T10:05:38;6.00;99.90
16674;DHT22;8450;52.654;10.326;2024-01-30T10:08:06;6.20;99.90
16674;DHT22;8450;52.654;10.326;2024-01-30T10:10:35;6.20;99.90
16674;DHT22;8450;52.654;10.326;2024-01-30T10:13:01;6.40;99.90
16674;DHT22;8450;52.654;10.326;2024-01-30T10:15:28;6.50;99.90
16674;DHT22;8450;52.654;10.326;2024-01-30T10:17:53;6.60;99.90
16674;DHT22;8450;52.654;10.326;2024-01-30T10:20:19;6.80;99.90
16674;DHT22;8450;52.654;10.326;2024-01-30T10:22:47;6.90;99.90
16674;DHT22;8450;52.654;10.326;2024-01-30T10:25:13;7.00;99.90
16674;DHT22;8450;52.654;10.326;2024-01-30T10:27:42;7.10;99.90
16674;DHT22;8450;52.654;10.326;2024-01-30T10:30:08;7.20;99.90
16674;DHT22;8450;52.654;10.326;2024-01-30T10:32:33;7.20;99.90
16674;DHT22;8450;52.654;10.326;2024-01-30T10:34:59;7.30;99.90
16674;DHT22;8450;52.654;10.326;2024-01-30T10:37:30;7.40;99.90
16674;DHT22;8450;52.654;10.326;2024-01-30T10:40:02;7.50;99.90
16674;DHT22;8450;52.654;10.326;2024-01-30T10:42:31;7.50;99.90
16674;DHT22;8450;52.654;10.326;2024-01-30T10:45:02;7.60;99.90
16674;DHT22;8450;52.654;10.326;2024-01-30T10:47:31;7.60;99.90
16674;DHT22;8450;52.654;10.326;2024-01-30T10:49:59;7.70;99.90
16674;DHT22;8450;52.654;10.326;2024-01-30T10:52:26;7.70;99.90
16674;DHT22;8450;52.654;10.326;2024-01-30T10:54:53;7.70;99.90
16674;DHT22;8450;52.654;10.326;2024-01-30T10:57:19;7.80;99.90
16674;DHT22;8450;52.654;10.326;2024-01-30T10:59:45;7.80;99.90
16674;DHT22;8450;52.654;10.326;2024-01-30T11:02:12;7.90;99.90
16674;DHT22;8450;52.654;10.326;2024-01-30T11:04:41;7.90;99.90
16674;DHT22;8450;52.654;10.326;2024-01-30T11:09:49;8.00;99.90
16674;DHT22;8450;52.654;10.326;2024-01-30T11:12:15;8.00;99.90
16674;DHT22;8450;52.654;10.326;2024-01-30T11:14:40;8.10;99.90
16674;DHT22;8450;52.654;10.326;2024-01-30T11:17:06;8.10;99.90
16674;DHT22;8450;52.654;10.326;2024-01-30T11:19:33;8.10;99.90
16674;DHT22;8450;52.654;10.326;2024-01-30T11:21:59;8.10;99.90
16674;DHT22;8450;52.654;10.326;2024-01-30T11:24:25;8.20;99.90
16674;DHT22;8450;52.654;10.326;2024-01-30T11:26:58;8.20;99.90
16674;DHT22;8450;52.654;10.326;2024-01-30T11:29:28;8.20;99.90
16674;DHT22;8450;52.654;10.326;2024-01-30T11:31:54;8.30;99.90
16674;DHT22;8450;52.654;10.326;2024-01-30T11:34:21;8.30;99.90
16674;DHT22;8450;52.654;10.326;2024-01-30T11:36:56;8.30;99.90
16674;DHT22;8450;52.654;10.326;2024-01-30T11:39:25;8.30;99.90
16674;DHT22;8450;52.654;10.326;2024-01-30T11:41:52;8.30;99.90
16674;DHT22;8450;52.654;10.326;2024-01-30T11:44:22;8.30;99.90
16674;DHT22;8450;52.654;10.326;2024-01-30T11:46:48;8.30;99.90
16674;DHT22;8450;52.654;10.326;2024-01-30T11:49:15;8.30;99.90
16674;DHT22;8450;52.654;10.326;2024-01-30T11:51:41;8.40;99.90
16674;DHT22;8450;52.654;10.326;2024-01-30T11:54:07;8.40;99.90
16674;DHT22;8450;52.654;10.326;2024-01-30T11:56:33;8.40;99.90
16674;DHT22;8450;52.654;10.326;2024-01-30T11:58:58;8.40;99.90
16674;DHT22;8450;52.654;10.326;2024-01-30T12:01:26;8.40;99.90
16674;DHT22;8450;52.654;10.326;2024-01-30T12:03:52;8.40;99.90
16674;DHT22;8450;52.654;10.326;2024-01-30T12:06:17;8.50;99.90
16674;DHT22;8450;52.654;10.326;2024-01-30T12:08:43;8.50;99.90
16674;DHT22;8450;52.654;10.326;2024-01-30T12:11:19;8.60;99.90
16674;DHT22;8450;52.654;10.326;2024-01-30T12:13:45;8.60;99.90
16674;DHT22;8450;52.654;10.326;2024-01-30T12:16:10;8.70;99.90
16674;DHT22;8450;52.654;10.326;2024-01-30T12:18:36;8.70;99.90
16674;DHT22;8450;52.654;10.326;2024-01-30T12:21:01;8.70;99.90
16674;DHT22;8450;52.654;10.326;2024-01-30T12:23:28;8.70;99.90
16674;DHT22;8450;52.654;10.326;2024-01-30T12:25:53;8.70;99.90
16674;DHT22;8450;52.654;10.326;2024-01-30T12:28:20;8.80;99.90
16674;DHT22;8450;52.654;10.326;2024-01-30T12:30:45;8.80;99.90
16674;DHT22;8450;52.654;10.326;2024-01-30T12:33:17;8.80;99.90
16674;DHT22;8450;52.654;10.326;2024-01-30T12:35:47;8.80;99.90
16674;DHT22;8450;52.654;10.326;2024-01-30T12:38:15;8.80;99.90
16674;DHT22;8450;52.654;10.326;2024-01-30T12:40:41;8.80;99.90
16674;DHT22;8450;52.654;10.326;2024-01-30T12:43:07;8.80;99.90
16674;DHT22;8450;52.654;10.326;2024-01-30T12:45:32;8.80;99.90
16674;DHT22;8450;52.654;10.326;2024-01-30T12:47:58;8.80;99.90
16674;DHT22;8450;52.654;10.326;2024-01-30T12:50:23;8.90;99.90
16674;DHT22;8450;52.654;10.326;2024-01-30T12:52:49;9.10;99.90
16674;DHT22;8450;52.654;10.326;2024-01-30T12:55:15;9.30;99.90
16674;DHT22;8450;52.654;10.326;2024-01-30T12:57:40;9.40;99.90
16674;DHT22;8450;52.654;10.326;2024-01-30T13:00:07;9.50;99.90
16674;DHT22;8450;52.654;10.326;2024-01-30T13:02:36;9.50;99.90
16674;DHT22;8450;52.654;10.326;2024-01-30T13:05:05;9.60;99.90
16674;DHT22;8450;52.654;10.326;2024-01-30T13:07:31;9.60;99.90
16674;DHT22;8450;52.654;10.326;2024-01-30T13:09:57;9.50;99.90
16674;DHT22;8450;52.654;10.326;2024-01-30T13:12:28;9.50;99.90
16674;DHT22;8450;52.654;10.326;2024-01-30T13:14:54;9.50;99.90
16674;DHT22;8450;52.654;10.326;2024-01-30T13:17:20;9.50;99.90
16674;DHT22;8450;52.654;10.326;2024-01-30T13:19:45;9.50;99.90
16674;DHT22;8450;52.654;10.326;2024-01-30T13:22:11;9.50;99.90
16674;DHT22;8450;52.654;10.326;2024-01-30T13:24:36;9.50;99.90
16674;DHT22;8450;52.654;10.326;2024-01-30T13:27:02;9.50;99.90
16674;DHT22;8450;52.654;10.326;2024-01-30T13:29:31;9.60;99.90
16674;DHT22;8450;52.654;10.326;2024-01-30T13:31:56;9.60;99.90
16674;DHT22;8450;52.654;10.326;2024-01-30T13:34:22;9.60;99.90
16674;DHT22;8450;52.654;10.326;2024-01-30T13:36:47;9.60;99.90
16674;DHT22;8450;52.654;10.326;2024-01-30T13:39:14;9.60;99.90
16674;DHT22;8450;52.654;10.326;2024-01-30T13:41:41;9.60;99.90
16674;DHT22;8450;52.654;10.326;2024-01-30T13:44:07;9.60;99.90
16674;DHT22;8450;52.654;10.326;2024-01-30T13:46:34;9.60;99.90
16674;DHT22;8450;52.654;10.326;2024-01-30T13:49:00;9.60;99.90
16674;DHT22;8450;52.654;10.326;2024-01-30T13:51:25;9.60;99.90
16674;DHT22;8450;52.654;10.326;2024-01-30T13:53:51;9.50;99.90
16674;DHT22;8450;52.654;10.326;2024-01-30T13:56:17;9.50;99.90
16674;DHT22;8450;52.654;10.326;2024-01-30T13:58:42;9.60;99.90
16674;DHT22;8450;52.654;10.326;2024-01-30T14:01:08;9.50;99.90
16674;DHT22;8450;52.654;10.326;2024-01-30T14:03:35;9.50;99.90
16674;DHT22;8450;52.654;10.326;2024-01-30T14:06:00;9.50;99.90
16674;DHT22;8450;52.654;10.326;2024-01-30T14:08:26;9.50;99.90
16674;DHT22;8450;52.654;10.326;2024-01-30T14:10:54;9.50;99.90
16674;DHT22;8450;52.654;10.326;2024-01-30T14:13:20;9.50;99.90
16674;DHT22;8450;52.654;10.326;2024-01-30T14:15:48;9.40;99.90
16674;DHT22;8450;52.654;10.326;2024-01-30T14:18:13;9.40;99.90
16674;DHT22;8450;52.654;10.326;2024-01-30T14:20:39;9.40;99.90
16674;DHT22;8450;52.654;10.326;2024-01-30T14:23:05;9.50;99.90
16674;DHT22;8450;52.654;10.326;2024-01-30T14:25:30;9.40;99.90
16674;DHT22;8450;52.654;10.326;2024-01-30T14:27:56;9.40;99.90
16674;DHT22;8450;52.654;10.326;2024-01-30T14:30:21;9.40;99.90
16674;DHT22;8450;52.654;10.326;2024-01-30T14:32:47;9.50;99.90
16674;DHT22;8450;52.654;10.326;2024-01-30T14:35:13;9.40;99.90
16674;DHT22;8450;52.654;10.326;2024-01-30T14:37:39;9.40;99.90
16674;DHT22;8450;52.654;10.326;2024-01-30T14:40:06;9.40;99.90
16674;DHT22;8450;52.654;10.326;2024-01-30T14:42:32;9.40;99.90
16674;DHT22;8450;52.654;10.326;2024-01-30T14:44:58;9.30;99.90
16674;DHT22;8450;52.654;10.326;2024-01-30T14:47:24;9.30;99.90
16674;DHT22;8450;52.654;10.326;2024-01-30T14:49:51;9.30;99.90
16674;DHT22;8450;52.654;10.326;2024-01-30T14:52:17;9.30;99.90
16674;DHT22;8450;52.654;10.326;2024-01-30T14:54:42;9.30;99.90
16674;DHT22;8450;52.654;10.326;2024-01-30T14:57:09;9.30;99.90
16674;DHT22;8450;52.654;10.326;2024-01-30T14:59:35;9.30;99.90
16674;DHT22;8450;52.654;10.326;2024-01-30T15:02:01;9.40;99.90
16674;DHT22;8450;52.654;10.326;2024-01-30T15:04:26;9.30;99.90
16674;DHT22;8450;52.654;10.326;2024-01-30T15:06:53;9.30;99.90
16674;DHT22;8450;52.654;10.326;2024-01-30T15:09:18;9.30;99.90
16674;DHT22;8450;52.654;10.326;2024-01-30T15:11:46;9.40;99.90
16674;DHT22;8450;52.654;10.326;2024-01-30T15:14:12;9.40;99.90
16674;DHT22;8450;52.654;10.326;2024-01-30T15:16:38;9.30;99.90
16674;DHT22;8450;52.654;10.326;2024-01-30T15:19:04;9.30;99.90
16674;DHT22;8450;52.654;10.326;2024-01-30T15:21:31;9.30;99.90
16674;DHT22;8450;52.654;10.326;2024-01-30T15:23:56;9.30;99.90
16674;DHT22;8450;52.654;10.326;2024-01-30T15:26:22;9.30;99.90
16674;DHT22;8450;52.654;10.326;2024-01-30T15:28:47;9.30;99.90
16674;DHT22;8450;52.654;10.326;2024-01-30T15:31:13;9.30;99.90
16674;DHT22;8450;52.654;10.326;2024-01-30T15:33:39;9.20;99.90
16674;DHT22;8450;52.654;10.326;2024-01-30T15:36:04;9.30;99.90
16674;DHT22;8450;52.654;10.326;2024-01-30T15:38:30;9.20;99.90
16674;DHT22;8450;52.654;10.326;2024-01-30T15:40:56;9.20;99.90